createdAt,value
2023-03-06T06:03:35.688Z,94762.00
2023-03-06T06:04:36.617Z,94766.00
2023-03-06T06:05:35.647Z,94762.00
2023-03-06T06:06:36.686Z,94762.00
2023-03-06T06:07:35.723Z,94762.00
2023-03-06T06:08:36.748Z,94764.00
2023-03-06T06:09:36.775Z,94764.00
2023-03-06T06:10:36.777Z,94764.00
2023-03-06T06:11:36.805Z,94764.00
2023-03-06T06:12:36.812Z,94766.00
2023-03-06T06:13:36.799Z,94766.00
2023-03-06T06:14:36.790Z,94766.00
2023-03-06T06:15:36.846Z,94766.00
2023-03-06T06:16:36.774Z,94772.00
2023-03-06T06:17:36.760Z,94770.00
2023-03-06T06:18:38.685Z,94772.00
2023-03-06T06:19:36.789Z,94774.00
2023-03-06T06:20:36.762Z,94772.00
2023-03-06T06:21:36.753Z,94770.00
2023-03-06T06:22:36.744Z,94766.00
2023-03-06T06:23:36.731Z,94772.00
2023-03-06T06:24:36.720Z,94770.00
2023-03-06T06:25:36.717Z,94768.00
2023-03-06T06:26:36.701Z,94766.00
2023-03-06T06:27:36.689Z,94768.00
2023-03-06T06:28:36.730Z,94766.00
2023-03-06T06:29:36.683Z,94766.00
2023-03-06T06:30:36.678Z,94768.00
2023-03-06T06:31:36.665Z,94762.00
2023-03-06T06:32:35.732Z,94766.00
2023-03-06T06:33:36.650Z,94762.00
2023-03-06T06:34:36.648Z,94766.00
2023-03-06T06:35:36.756Z,94768.00
2023-03-06T06:36:35.643Z,94762.00
2023-03-06T06:37:36.674Z,94766.00
2023-03-06T06:38:36.620Z,94764.00
2023-03-06T06:39:35.626Z,94764.00
2023-03-06T06:40:36.602Z,94768.00
2023-03-06T06:41:54.858Z,94768.00
2023-03-06T06:42:39.818Z,94766.00
2023-03-06T06:43:36.596Z,94766.00
2023-03-06T06:44:36.612Z,94762.00
2023-03-06T06:45:35.564Z,94760.00
2023-03-06T06:47:36.556Z,94760.00
2023-03-06T06:48:36.554Z,94760.00
2023-03-06T06:49:36.577Z,94762.00
2023-03-06T06:50:36.554Z,94762.00
2023-03-06T06:51:36.568Z,94762.00
2023-03-06T06:52:36.538Z,94762.00
2023-03-06T06:53:36.517Z,94764.00
2023-03-06T06:54:36.509Z,94764.00
2023-03-06T06:55:36.498Z,94764.00
2023-03-06T06:56:36.498Z,94766.00
2023-03-06T06:57:36.500Z,94768.00
2023-03-06T06:58:36.502Z,94766.00
2023-03-06T06:59:36.471Z,94768.00
2023-03-06T07:00:36.466Z,94768.00
2023-03-06T07:01:36.539Z,94768.00
2023-03-06T07:02:36.496Z,94774.00
2023-03-06T07:03:36.486Z,94774.00
2023-03-06T07:04:36.472Z,94776.00
2023-03-06T07:05:36.443Z,94778.00
2023-03-06T07:06:35.430Z,94776.00
2023-03-06T07:07:36.566Z,94772.00
2023-03-06T07:08:35.406Z,94776.00
2023-03-06T07:09:36.388Z,94772.00
2023-03-06T07:10:36.398Z,94770.00
2023-03-06T07:11:36.404Z,94770.00
2023-03-06T07:12:36.398Z,94770.00
2023-03-06T07:13:36.377Z,94770.00
2023-03-06T07:14:36.363Z,94772.00
2023-03-06T07:15:36.410Z,94770.00
2023-03-06T07:16:36.336Z,94774.00
2023-03-06T07:17:36.356Z,94770.00
2023-03-06T07:18:35.332Z,94768.00
2023-03-06T07:19:37.970Z,94774.00
2023-03-06T07:20:35.311Z,94776.00
2023-03-06T07:21:36.330Z,94772.00
2023-03-06T07:22:49.836Z,94774.00
2023-03-06T07:23:36.310Z,94772.00
2023-03-06T07:24:36.296Z,94770.00
2023-03-06T07:25:36.275Z,94766.00
2023-03-06T07:26:36.304Z,94772.00
2023-03-06T07:27:36.328Z,94768.00
2023-03-06T07:28:51.305Z,94768.00
2023-03-06T07:29:36.244Z,94766.00
2023-03-06T07:30:36.256Z,94768.00
2023-03-06T07:31:35.289Z,94768.00
2023-03-06T07:32:36.273Z,94766.00
2023-03-06T07:33:36.238Z,94770.00
2023-03-06T07:34:36.255Z,94770.00
2023-03-06T07:35:36.252Z,94770.00
2023-03-06T07:36:36.202Z,94772.00
2023-03-06T07:37:36.213Z,94774.00
2023-03-06T07:38:36.186Z,94778.00
2023-03-06T07:39:36.222Z,94778.00
2023-03-06T07:40:36.182Z,94780.00
2023-03-06T07:41:35.185Z,94778.00
2023-03-06T07:42:35.162Z,94778.00
2023-03-06T07:43:36.166Z,94778.00
2023-03-06T07:44:36.198Z,94774.00
2023-03-06T07:45:35.141Z,94776.00
2023-03-06T07:46:36.196Z,94776.00
2023-03-06T07:47:36.149Z,94774.00
2023-03-06T07:48:36.138Z,94778.00
2023-03-06T07:49:36.125Z,94782.00
2023-03-06T07:50:35.128Z,94782.00
2023-03-06T07:51:35.125Z,94782.00
2023-03-06T07:52:35.116Z,94784.00
2023-03-06T07:53:36.521Z,94784.00
2023-03-06T07:54:36.091Z,94786.00
2023-03-06T07:55:37.033Z,94788.00
2023-03-06T07:56:36.068Z,94782.00
2023-03-06T07:57:36.079Z,94786.00
2023-03-06T07:58:36.571Z,94784.00
2023-03-06T07:59:36.056Z,94784.00
2023-03-06T08:00:36.031Z,94788.00
2023-03-06T08:01:36.047Z,94788.00
2023-03-06T08:02:37.041Z,94792.00
2023-03-06T08:03:36.066Z,94790.00
2023-03-06T08:04:36.015Z,94788.00
2023-03-06T08:05:36.003Z,94788.00
2023-03-06T08:06:36.005Z,94786.00
2023-03-06T08:07:35.974Z,94786.00
2023-03-06T08:08:35.985Z,94786.00
2023-03-06T08:09:35.979Z,94790.00
2023-03-06T08:10:35.972Z,94788.00
2023-03-06T08:11:36.086Z,94788.00
2023-03-06T08:12:35.952Z,94788.00
2023-03-06T08:13:35.990Z,94786.00
2023-03-06T08:14:35.935Z,94788.00
2023-03-06T08:15:35.923Z,94784.00
2023-03-06T08:16:34.935Z,94782.00
2023-03-06T08:17:35.902Z,94780.00
2023-03-06T08:18:35.919Z,94780.00
2023-03-06T08:19:35.924Z,94780.00
2023-03-06T08:20:35.950Z,94782.00
2023-03-06T08:21:35.997Z,94782.00
2023-03-06T08:22:36.057Z,94780.00
2023-03-06T08:24:36.174Z,94774.00
2023-03-06T08:25:36.242Z,94780.00
2023-03-06T08:26:36.299Z,94782.00
2023-03-06T08:27:35.390Z,94784.00
2023-03-06T08:28:36.419Z,94786.00
2023-03-06T08:29:36.469Z,94788.00
2023-03-06T08:30:35.518Z,94782.00
2023-03-06T08:31:36.636Z,94778.00
2023-03-06T08:32:36.724Z,94778.00
2023-03-06T08:33:36.640Z,94774.00
2023-03-06T08:34:36.717Z,94780.00
2023-03-06T08:35:36.775Z,94784.00
2023-03-06T08:36:36.791Z,94786.00
2023-03-06T08:37:36.894Z,94784.00
2023-03-06T08:38:35.872Z,94784.00
2023-03-06T08:39:36.906Z,94784.00
2023-03-06T08:40:35.911Z,94782.00
2023-03-06T08:41:36.914Z,94784.00
2023-03-06T08:42:36.931Z,94786.00
2023-03-06T08:43:36.972Z,94786.00
2023-03-06T08:44:36.936Z,94788.00
2023-03-06T08:45:37.061Z,94782.00
2023-03-06T08:46:36.926Z,94782.00
2023-03-06T08:47:36.918Z,94784.00
2023-03-06T08:48:36.036Z,94782.00
2023-03-06T08:49:36.919Z,94780.00
2023-03-06T08:50:36.938Z,94780.00
2023-03-06T08:51:36.901Z,94780.00
2023-03-06T08:52:35.906Z,94780.00
2023-03-06T08:53:43.270Z,94784.00
2023-03-06T08:54:36.907Z,94780.00
2023-03-06T08:55:35.902Z,94786.00
2023-03-06T08:56:36.895Z,94786.00
2023-03-06T08:57:36.891Z,94782.00
2023-03-06T08:58:35.875Z,94782.00
2023-03-06T08:59:35.900Z,94780.00
2023-03-06T09:00:36.881Z,94784.00
2023-03-06T09:01:36.940Z,94782.00
2023-03-06T09:02:36.895Z,94786.00
2023-03-06T09:03:36.873Z,94786.00
2023-03-06T09:04:36.836Z,94784.00
2023-03-06T09:05:36.828Z,94780.00
2023-03-06T09:06:36.828Z,94784.00
2023-03-06T09:07:36.833Z,94784.00
2023-03-06T09:10:36.881Z,94782.00
2023-03-06T09:11:36.781Z,94780.00
2023-03-06T09:12:47.518Z,94778.00
2023-03-06T09:13:36.787Z,94776.00
2023-03-06T09:14:35.754Z,94778.00
2023-03-06T09:15:36.759Z,94778.00
2023-03-06T09:16:35.807Z,94774.00
2023-03-06T09:17:36.761Z,94778.00
2023-03-06T09:18:36.770Z,94774.00
2023-03-06T09:19:36.748Z,94774.00
2023-03-06T09:31:36.652Z,94776.00
2023-03-06T09:32:36.644Z,94774.00
2023-03-06T09:33:36.623Z,94774.00
2023-03-06T09:34:36.604Z,94774.00
2023-03-06T09:35:36.658Z,94780.00
2023-03-06T09:36:53.335Z,94782.00
2023-03-06T09:37:36.585Z,94784.00
2023-03-06T09:38:36.574Z,94782.00
2023-03-06T09:39:36.562Z,94780.00
2023-03-06T09:40:36.556Z,94778.00
2023-03-06T09:41:36.593Z,94774.00
2023-03-06T09:42:37.073Z,94776.00
2023-03-06T09:43:36.547Z,94774.00
2023-03-06T09:44:36.524Z,94772.00
2023-03-06T09:45:36.521Z,94774.00
2023-03-06T09:46:36.528Z,94776.00
2023-03-06T09:47:36.528Z,94776.00
2023-03-06T09:48:36.498Z,94774.00
2023-03-06T09:49:36.499Z,94776.00
2023-03-06T09:50:36.514Z,94774.00
2023-03-06T09:51:36.467Z,94776.00
2023-03-06T09:52:36.473Z,94782.00
2023-03-06T09:53:36.464Z,94782.00
2023-03-06T09:54:36.462Z,94786.00
2023-03-06T09:55:36.467Z,94778.00
2023-03-06T09:56:36.440Z,94774.00
2023-03-06T09:57:36.460Z,94780.00
2023-03-06T09:58:36.561Z,94774.00
2023-03-06T09:59:36.416Z,94776.00
2023-03-06T10:00:35.408Z,94774.00
2023-03-06T10:01:35.396Z,94776.00
2023-03-06T10:02:35.513Z,94774.00
2023-03-06T10:03:36.413Z,94772.00
2023-03-06T10:04:36.513Z,94770.00
2023-03-06T10:05:36.365Z,94772.00
2023-03-06T10:06:36.356Z,94766.00
2023-03-06T10:07:36.340Z,94768.00
2023-03-06T10:08:36.354Z,94764.00
2023-03-06T10:09:35.369Z,94762.00
2023-03-06T10:10:35.401Z,94762.00
2023-03-06T10:11:36.481Z,94764.00
2023-03-06T10:12:35.483Z,94762.00
2023-03-06T10:13:36.536Z,94762.00
2023-03-06T10:14:36.617Z,94762.00
2023-03-06T10:15:36.651Z,94764.00
2023-03-06T10:16:36.640Z,94764.00
2023-03-06T10:17:35.682Z,94766.00
2023-03-06T10:18:36.725Z,94766.00
2023-03-06T10:19:36.789Z,94766.00
2023-03-06T10:20:36.766Z,94762.00
2023-03-06T10:21:36.814Z,94764.00
2023-03-06T10:22:35.829Z,94760.00
2023-03-06T10:23:36.873Z,94762.00
2023-03-06T10:24:36.881Z,94762.00
2023-03-06T10:25:36.896Z,94760.00
2023-03-06T10:26:37.028Z,94758.00
2023-03-06T10:27:36.950Z,94758.00
2023-03-06T10:28:35.985Z,94756.00
2023-03-06T10:29:38.491Z,94758.00
2023-03-06T10:30:36.017Z,94758.00
2023-03-06T10:31:37.048Z,94758.00
2023-03-06T10:32:48.373Z,94756.00
2023-03-06T10:33:37.058Z,94756.00
2023-03-06T10:34:37.035Z,94752.00
2023-03-06T10:35:37.149Z,94754.00
2023-03-06T10:36:37.023Z,94754.00
2023-03-06T10:37:36.008Z,94754.00
2023-03-06T10:38:37.017Z,94752.00
2023-03-06T10:39:36.014Z,94750.00
2023-03-06T10:40:36.991Z,94747.00
2023-03-06T10:41:36.981Z,94741.00
2023-03-06T10:42:36.974Z,94737.00
2023-03-06T10:43:36.975Z,94737.00
2023-03-06T10:44:36.980Z,94733.00
2023-03-06T10:45:48.641Z,94733.00
2023-03-06T10:46:37.065Z,94731.00
2023-03-06T10:47:36.936Z,94737.00
2023-03-06T10:48:35.941Z,94733.00
2023-03-06T10:49:37.065Z,94731.00
2023-03-06T10:50:36.920Z,94727.00
2023-03-06T10:52:35.922Z,94727.00
2023-03-06T10:53:35.927Z,94725.00
2023-03-06T10:54:36.089Z,94727.00
2023-03-06T10:55:36.890Z,94723.00
2023-03-06T10:56:36.889Z,94721.00
2023-03-06T10:57:36.875Z,94723.00
2023-03-06T10:59:36.873Z,94721.00
2023-03-06T11:00:36.846Z,94725.00
2023-03-06T11:01:36.891Z,94725.00
2023-03-06T11:02:36.835Z,94727.00
2023-03-06T11:03:36.904Z,94723.00
2023-03-06T11:04:35.908Z,94721.00
2023-03-06T11:05:36.922Z,94721.00
2023-03-06T11:06:35.943Z,94719.00
2023-03-06T11:07:37.011Z,94717.00
2023-03-06T11:08:36.976Z,94711.00
2023-03-06T11:09:37.022Z,94709.00
2023-03-06T11:11:38.058Z,94701.00
2023-03-06T11:12:37.074Z,94700.00
2023-03-06T11:13:37.069Z,94698.00
2023-03-06T11:14:37.112Z,94698.00
2023-03-06T11:15:37.098Z,94701.00
2023-03-06T11:16:37.119Z,94703.00
2023-03-06T11:17:37.141Z,94705.00
2023-03-06T11:18:37.136Z,94703.00
2023-03-06T11:19:37.165Z,94707.00
2023-03-06T11:20:50.420Z,94703.00
2023-03-06T11:21:37.162Z,94705.00
2023-03-06T11:22:37.157Z,94701.00
2023-03-06T11:23:36.218Z,94700.00
2023-03-06T11:24:37.146Z,94701.00
2023-03-06T11:25:37.156Z,94698.00
2023-03-06T11:26:37.144Z,94700.00
2023-03-06T11:27:37.126Z,94698.00
2023-03-06T11:28:37.120Z,94700.00
2023-03-06T11:29:38.856Z,94700.00
2023-03-06T11:30:37.099Z,94698.00
2023-03-06T11:31:37.128Z,94698.00
2023-03-06T11:32:36.145Z,94696.00
2023-03-06T11:33:37.082Z,94696.00
2023-03-06T11:34:37.094Z,94696.00
2023-03-06T11:35:37.092Z,94694.00
2023-03-06T11:36:37.056Z,94692.00
2023-03-06T11:37:37.047Z,94692.00
2023-03-06T11:38:37.057Z,94692.00
2023-03-06T11:39:37.126Z,94694.00
2023-03-06T11:40:36.025Z,94690.00
2023-03-06T11:41:37.049Z,94690.00
2023-03-06T11:42:37.008Z,94690.00
2023-03-06T11:43:37.005Z,94690.00
2023-03-06T11:44:37.002Z,94688.00
2023-03-06T11:45:36.996Z,94682.00
2023-03-06T11:46:37.020Z,94684.00
2023-03-06T11:47:36.993Z,94682.00
2023-03-06T11:48:37.001Z,94680.00
2023-03-06T11:49:36.959Z,94680.00
2023-03-06T11:50:36.950Z,94678.00
2023-03-06T11:51:36.937Z,94674.00
2023-03-06T11:52:36.948Z,94670.00
2023-03-06T11:53:35.927Z,94672.00
2023-03-06T11:54:36.933Z,94662.00
2023-03-06T11:55:36.954Z,94660.00
2023-03-06T11:56:35.899Z,94655.00
2023-03-06T11:57:36.907Z,94655.00
2023-03-06T11:58:36.892Z,94656.00
2023-03-06T11:59:36.894Z,94653.00
2023-03-06T12:00:36.885Z,94651.00
2023-03-06T12:01:36.891Z,94651.00
2023-03-06T12:02:36.857Z,94653.00
2023-03-06T12:03:36.870Z,94655.00
2023-03-06T12:04:36.852Z,94656.00
2023-03-06T12:05:36.903Z,94655.00
2023-03-06T12:06:36.829Z,94653.00
2023-03-06T12:07:35.837Z,94655.00
2023-03-06T12:08:36.840Z,94653.00
2023-03-06T12:09:35.825Z,94655.00
2023-03-06T12:10:36.815Z,94651.00
2023-03-06T12:11:36.820Z,94651.00
2023-03-06T12:12:36.787Z,94647.00
2023-03-06T12:13:36.778Z,94647.00
2023-03-06T12:14:36.767Z,94649.00
2023-03-06T12:15:36.792Z,94653.00
2023-03-06T12:16:35.829Z,94651.00
2023-03-06T12:17:36.765Z,94651.00
2023-03-06T12:18:36.759Z,94651.00
2023-03-06T12:19:36.738Z,94653.00
2023-03-06T12:20:36.723Z,94649.00
2023-03-06T12:21:36.715Z,94649.00
2023-03-06T12:22:36.725Z,94647.00
2023-03-06T12:23:36.713Z,94647.00
2023-03-06T12:24:36.702Z,94645.00
2023-03-06T12:25:36.698Z,94647.00
2023-03-06T12:26:36.735Z,94645.00
2023-03-06T12:27:36.719Z,94647.00
2023-03-06T12:28:36.664Z,94649.00
2023-03-06T12:29:36.660Z,94647.00
2023-03-06T12:30:35.649Z,94647.00
2023-03-06T12:31:35.675Z,94647.00
2023-03-06T12:32:36.741Z,94647.00
2023-03-06T12:33:36.630Z,94651.00
2023-03-06T12:34:36.622Z,94649.00
2023-03-06T12:35:35.690Z,94651.00
2023-03-06T12:36:36.642Z,94649.00
2023-03-06T12:37:36.663Z,94651.00
2023-03-06T12:38:36.669Z,94651.00
2023-03-06T12:39:36.145Z,94653.00
2023-03-06T12:40:36.706Z,94649.00
2023-03-06T12:41:36.735Z,94649.00
2023-03-06T12:42:36.754Z,94649.00
2023-03-06T12:43:38.930Z,94653.00
2023-03-06T12:44:36.801Z,94653.00
2023-03-06T12:45:37.029Z,94653.00
2023-03-06T12:46:35.757Z,94655.00
2023-03-06T12:47:36.736Z,94655.00
2023-03-06T12:48:36.725Z,94649.00
2023-03-06T12:49:36.727Z,94655.00
2023-03-06T12:50:36.734Z,94651.00
2023-03-06T12:51:36.720Z,94653.00
2023-03-06T13:02:36.666Z,94651.00
2023-03-06T13:03:35.614Z,94655.00
2023-03-06T13:06:41.983Z,94653.00
2023-03-06T13:09:36.598Z,94658.00
2023-03-06T14:27:37.681Z,94670.00
2023-03-06T14:28:37.730Z,94672.00
2023-03-06T14:29:37.779Z,94662.00
2023-03-06T14:31:36.951Z,94670.00
2023-03-06T14:32:36.956Z,94670.00
2023-03-06T14:33:37.999Z,94670.00
2023-03-06T14:34:38.053Z,94672.00
2023-03-06T14:35:38.185Z,94672.00
2023-03-06T14:36:38.122Z,94672.00
2023-03-06T14:37:38.181Z,94670.00
2023-03-06T14:38:38.212Z,94670.00
2023-03-06T14:39:38.275Z,94662.00
2023-03-06T14:40:38.297Z,94662.00
2023-03-06T14:41:38.325Z,94660.00
2023-03-06T14:42:38.374Z,94658.00
2023-03-06T14:43:38.407Z,94660.00
2023-03-06T14:44:38.454Z,94660.00
2023-03-06T14:46:37.618Z,94662.00
2023-03-06T14:47:38.558Z,94670.00
2023-03-06T14:48:38.599Z,94662.00
2023-03-06T14:49:38.614Z,94662.00
2023-03-06T14:50:40.325Z,94662.00
2023-03-06T14:51:38.658Z,94662.00
2023-03-06T14:52:38.630Z,94660.00
2023-03-06T14:53:37.632Z,94660.00
2023-03-06T14:54:38.622Z,94660.00
2023-03-06T14:55:37.631Z,94670.00
2023-03-06T14:56:38.598Z,94658.00
2023-03-06T14:57:38.585Z,94662.00
2023-03-06T14:58:38.595Z,94662.00
2023-03-06T14:59:38.576Z,94670.00
2023-03-06T15:00:38.609Z,94660.00
2023-03-06T15:01:38.648Z,94656.00
2023-03-06T15:02:38.613Z,94656.00
2023-03-06T15:03:37.555Z,94658.00
2023-03-06T15:04:38.545Z,94658.00
2023-03-06T15:05:38.548Z,94660.00
2023-03-06T15:06:38.622Z,94656.00
2023-03-06T15:07:37.549Z,94662.00
2023-03-06T15:08:38.524Z,94656.00
2023-03-06T15:09:37.506Z,94658.00
2023-03-06T15:10:38.498Z,94658.00
2023-03-06T15:11:38.485Z,94658.00
2023-03-06T15:12:38.577Z,94656.00
2023-03-06T15:13:38.474Z,94656.00
2023-03-06T15:14:37.466Z,94656.00
2023-03-06T15:15:37.470Z,94658.00
2023-03-06T15:16:38.543Z,94660.00
2023-03-06T15:17:38.553Z,94655.00
2023-03-06T15:18:39.018Z,94660.00
2023-03-06T15:19:38.659Z,94660.00
2023-03-06T15:20:38.720Z,94656.00
2023-03-06T15:21:38.790Z,94662.00
2023-03-06T15:22:38.865Z,94660.00
2023-03-06T15:23:37.957Z,94658.00
2023-03-06T15:24:38.958Z,94660.00
2023-03-06T15:25:38.014Z,94662.00
2023-03-06T15:28:39.188Z,94672.00
2023-03-06T15:29:39.253Z,94670.00
2023-03-06T15:30:39.310Z,94674.00
2023-03-06T15:31:39.400Z,94672.00
2023-03-06T15:32:39.439Z,94676.00
2023-03-06T15:33:39.452Z,94674.00
2023-03-06T15:34:39.532Z,94674.00
2023-03-06T15:35:39.620Z,94672.00
2023-03-06T15:36:39.609Z,94672.00
2023-03-06T15:37:38.656Z,94674.00
2023-03-06T15:38:39.695Z,94676.00
2023-03-06T15:39:39.778Z,94676.00
2023-03-06T15:43:39.964Z,94678.00
2023-03-06T15:44:38.995Z,94678.00
2023-03-06T15:45:40.095Z,94670.00
2023-03-06T15:46:40.098Z,94672.00
2023-03-06T15:47:40.162Z,94672.00
2023-03-06T15:48:39.208Z,94674.00
2023-03-06T15:49:40.268Z,94672.00
2023-03-06T15:50:40.440Z,94672.00
2023-03-06T15:51:40.360Z,94674.00
2023-03-06T15:52:40.392Z,94674.00
2023-03-06T15:53:40.438Z,94672.00
2023-03-06T15:54:40.504Z,94672.00
2023-03-06T15:55:40.574Z,94674.00
2023-03-06T15:56:39.588Z,94670.00
2023-03-06T15:57:39.652Z,94672.00
2023-03-06T15:58:40.737Z,94672.00
2023-03-06T15:59:40.750Z,94674.00
2023-03-06T16:00:40.810Z,94676.00
2023-03-06T16:01:40.840Z,94678.00
2023-03-06T16:02:40.881Z,94678.00
2023-03-06T16:03:40.931Z,94680.00
2023-03-06T16:04:40.988Z,94676.00
2023-03-06T16:05:41.030Z,94676.00
2023-03-06T16:06:41.083Z,94674.00
2023-03-06T16:07:41.127Z,94672.00
2023-03-06T16:08:40.169Z,94674.00
2023-03-06T16:09:40.233Z,94672.00
2023-03-06T16:10:41.297Z,94672.00
2023-03-06T16:11:43.923Z,94678.00
2023-03-06T16:12:40.340Z,94678.00
2023-03-06T16:13:41.336Z,94682.00
2023-03-06T16:14:40.338Z,94684.00
2023-03-06T16:15:40.329Z,94686.00
2023-03-06T16:16:41.453Z,94684.00
2023-03-06T16:17:41.298Z,94686.00
2023-03-06T16:18:41.283Z,94684.00
2023-03-06T16:19:41.283Z,94686.00
2023-03-06T16:20:41.284Z,94680.00
2023-03-06T16:21:41.278Z,94680.00
2023-03-06T16:22:41.256Z,94682.00
2023-03-06T16:23:41.239Z,94680.00
2023-03-06T16:24:41.245Z,94678.00
2023-03-06T16:25:41.222Z,94678.00
2023-03-06T16:26:41.223Z,94674.00
2023-03-06T16:27:41.239Z,94676.00
2023-03-06T16:28:41.222Z,94678.00
2023-03-06T16:29:40.204Z,94680.00
2023-03-06T16:31:59.556Z,94684.00
2023-03-06T16:33:00.332Z,94684.00
2023-03-06T16:34:00.259Z,94684.00
2023-03-06T16:35:00.257Z,94688.00
2023-03-06T16:35:59.268Z,94690.00
2023-03-06T16:37:00.222Z,94688.00
2023-03-06T16:38:00.256Z,94686.00
2023-03-06T16:39:00.227Z,94688.00
2023-03-06T16:40:00.216Z,94690.00
2023-03-06T16:41:00.247Z,94690.00
2023-03-06T16:41:59.216Z,94690.00
2023-03-06T16:42:59.251Z,94684.00
2023-03-06T16:44:00.181Z,94686.00
2023-03-06T16:45:00.184Z,94686.00
2023-03-06T16:46:00.195Z,94686.00
2023-03-06T16:47:00.185Z,94688.00
2023-03-06T16:48:00.456Z,94690.00
2023-03-06T16:49:00.179Z,94688.00
2023-03-06T16:50:00.240Z,94688.00
2023-03-06T16:51:00.137Z,94692.00
2023-03-06T16:52:00.122Z,94692.00
2023-03-06T16:53:00.153Z,94694.00
2023-03-06T16:54:00.117Z,94696.00
2023-03-06T16:54:59.112Z,94694.00
2023-03-06T16:56:00.176Z,94690.00
2023-03-06T16:57:00.114Z,94692.00
2023-03-06T16:58:00.129Z,94692.00
2023-03-06T16:59:00.118Z,94692.00
2023-03-06T16:59:59.063Z,94692.00
2023-03-06T17:01:00.165Z,94690.00
2023-03-06T17:02:00.095Z,94692.00
2023-03-06T17:03:00.088Z,94696.00
2023-03-06T17:04:00.044Z,94696.00
2023-03-06T17:05:00.028Z,94694.00
2023-03-06T17:06:00.040Z,94692.00
2023-03-06T17:07:00.030Z,94696.00
2023-03-06T17:08:00.027Z,94696.00
2023-03-06T17:08:59.995Z,94700.00
2023-03-06T17:09:58.998Z,94698.00
2023-03-06T17:10:59.992Z,94701.00
2023-03-06T17:11:58.982Z,94701.00
2023-03-06T17:12:59.963Z,94701.00
2023-03-06T17:14:00.025Z,94701.00
2023-03-06T17:15:00.049Z,94701.00
2023-03-06T17:16:00.188Z,94700.00
2023-03-06T17:17:00.147Z,94701.00
2023-03-06T17:18:00.229Z,94698.00
2023-03-06T17:19:00.219Z,94696.00
2023-03-06T17:20:00.270Z,94692.00
2023-03-06T17:21:00.372Z,94696.00
2023-03-06T17:22:00.406Z,94694.00
2023-03-06T17:23:00.428Z,94692.00
2023-03-06T17:24:00.474Z,94694.00
2023-03-06T17:25:00.531Z,94694.00
2023-03-06T17:26:00.616Z,94696.00
2023-03-06T17:26:59.654Z,94696.00
2023-03-06T17:28:00.707Z,94698.00
2023-03-06T17:28:59.779Z,94700.00
2023-03-06T17:30:00.826Z,94698.00
2023-03-06T17:31:00.957Z,94698.00
2023-03-06T17:32:00.945Z,94701.00
2023-03-06T17:33:01.027Z,94701.00
2023-03-06T17:34:01.044Z,94703.00
2023-03-06T17:35:01.125Z,94703.00
2023-03-06T17:36:00.175Z,94701.00
2023-03-06T17:37:01.303Z,94703.00
2023-03-06T17:38:00.337Z,94703.00
2023-03-06T17:39:02.105Z,94705.00
2023-03-06T17:40:00.436Z,94707.00
2023-03-06T17:41:01.506Z,94709.00
2023-03-06T17:42:01.554Z,94707.00
2023-03-06T17:43:01.606Z,94709.00
2023-03-06T17:44:00.695Z,94711.00
2023-03-06T17:45:01.730Z,94713.00
2023-03-06T17:46:01.899Z,94713.00
2023-03-06T17:47:01.853Z,94713.00
2023-03-06T17:48:01.918Z,94713.00
2023-03-06T17:49:01.943Z,94717.00
2023-03-06T17:50:02.042Z,94713.00
2023-03-06T17:51:02.144Z,94717.00
2023-03-06T17:52:01.159Z,94715.00
2023-03-06T17:53:02.159Z,94719.00
2023-03-06T17:54:02.222Z,94717.00
2023-03-06T17:55:02.273Z,94715.00
2023-03-06T17:56:02.402Z,94717.00
2023-03-06T17:57:02.408Z,94717.00
2023-03-06T17:58:02.393Z,94719.00
2023-03-06T17:59:02.433Z,94721.00
2023-03-06T18:00:02.486Z,94717.00
2023-03-06T18:01:02.553Z,94717.00
2023-03-06T18:02:02.753Z,94715.00
2023-03-06T18:03:02.672Z,94713.00
2023-03-06T18:04:02.690Z,94717.00
2023-03-06T18:05:01.825Z,94717.00
2023-03-06T18:06:02.783Z,94715.00
2023-03-06T18:07:02.806Z,94719.00
2023-03-06T18:08:02.856Z,94717.00
2023-03-06T18:09:02.832Z,94719.00
2023-03-06T18:10:02.847Z,94719.00
2023-03-06T18:11:02.870Z,94719.00
2023-03-06T18:12:02.893Z,94721.00
2023-03-06T18:13:02.931Z,94721.00
2023-03-06T18:14:05.380Z,94723.00
2023-03-06T18:15:01.939Z,94721.00
2023-03-06T18:16:02.969Z,94719.00
2023-03-06T18:17:02.903Z,94719.00
2023-03-06T18:18:02.887Z,94721.00
2023-03-06T18:19:01.912Z,94719.00
2023-03-06T18:20:02.947Z,94721.00
2023-03-06T18:21:02.863Z,94717.00
2023-03-06T18:22:02.868Z,94721.00
2023-03-06T18:23:02.869Z,94719.00
2023-03-06T18:24:02.835Z,94715.00
2023-03-06T18:25:01.877Z,94721.00
2023-03-06T18:26:02.867Z,94725.00
2023-03-06T18:27:02.825Z,94725.00
2023-03-06T18:28:02.805Z,94725.00
2023-03-06T18:29:02.811Z,94729.00
2023-03-06T18:30:02.796Z,94725.00
2023-03-06T18:31:02.786Z,94725.00
2023-03-06T18:32:02.948Z,94729.00
2023-03-06T18:33:02.759Z,94729.00
2023-03-06T18:34:02.752Z,94731.00
2023-03-06T18:35:02.777Z,94733.00
2023-03-06T18:36:02.747Z,94731.00
2023-03-06T18:37:02.771Z,94729.00
2023-03-06T18:38:02.732Z,94731.00
2023-03-06T18:39:02.721Z,94731.00
2023-03-06T18:40:01.750Z,94737.00
2023-03-06T18:41:02.712Z,94737.00
2023-03-06T18:42:02.685Z,94737.00
2023-03-06T18:43:02.710Z,94741.00
2023-03-06T18:44:02.864Z,94739.00
2023-03-06T18:45:02.722Z,94741.00
2023-03-06T18:46:02.727Z,94741.00
2023-03-06T18:47:02.721Z,94739.00
2023-03-06T18:48:02.645Z,94739.00
2023-03-06T18:49:02.653Z,94739.00
2023-03-06T18:50:02.760Z,94741.00
2023-03-06T18:51:01.668Z,94739.00
2023-03-06T18:52:02.635Z,94737.00
2023-03-06T18:53:02.612Z,94739.00
2023-03-06T18:54:02.615Z,94741.00
2023-03-06T18:55:02.681Z,94741.00
2023-03-06T18:56:02.618Z,94735.00
2023-03-06T18:57:01.602Z,94735.00
2023-03-06T18:58:02.559Z,94737.00
2023-03-06T18:59:01.616Z,94735.00
2023-03-06T19:00:01.594Z,94737.00
2023-03-06T19:01:02.570Z,94735.00
2023-03-06T19:02:02.566Z,94741.00
2023-03-06T19:03:01.569Z,94733.00
2023-03-06T19:04:02.584Z,94737.00
2023-03-06T19:05:01.519Z,94737.00
2023-03-06T19:06:02.519Z,94739.00
2023-03-06T19:07:02.535Z,94739.00
2023-03-06T19:08:02.554Z,94743.00
2023-03-06T19:09:02.488Z,94741.00
2023-03-06T19:10:02.479Z,94745.00
2023-03-06T19:11:02.483Z,94743.00
2023-03-06T19:12:02.481Z,94747.00
2023-03-06T19:13:02.486Z,94747.00
2023-03-06T19:14:02.479Z,94745.00
2023-03-06T19:15:02.458Z,94747.00
2023-03-06T19:16:02.445Z,94745.00
2023-03-06T19:17:01.456Z,94747.00
2023-03-06T19:18:02.422Z,94748.00
2023-03-06T19:19:02.459Z,94750.00
2023-03-06T19:20:02.480Z,94748.00
2023-03-06T19:21:02.392Z,94748.00
2023-03-06T19:22:02.460Z,94752.00
2023-03-06T19:23:02.417Z,94752.00
2023-03-06T19:24:02.383Z,94750.00
2023-03-06T19:25:03.913Z,94752.00
2023-03-06T19:26:02.524Z,94752.00
2023-03-06T19:27:02.512Z,94758.00
2023-03-06T19:28:02.536Z,94756.00
2023-03-06T19:29:02.504Z,94756.00
2023-03-06T19:30:02.504Z,94758.00
2023-03-06T19:31:01.506Z,94756.00
2023-03-06T19:32:02.761Z,94754.00
2023-03-06T19:33:02.526Z,94762.00
2023-03-06T19:34:02.505Z,94762.00
2023-03-06T19:35:01.510Z,94760.00
2023-03-06T19:36:02.541Z,94762.00
2023-03-06T19:37:01.498Z,94760.00
2023-03-06T19:38:02.507Z,94762.00
2023-03-06T19:39:02.533Z,94758.00
2023-03-06T19:40:02.496Z,94762.00
2023-03-06T19:41:02.515Z,94760.00
2023-03-06T19:42:02.508Z,94760.00
2023-03-06T19:43:02.510Z,94758.00
2023-03-06T19:44:02.545Z,94758.00
2023-03-06T19:45:02.518Z,94760.00